PST,Max TemperatureF,Mean TemperatureF,Min TemperatureF,Max Dew PointF,MeanDew PointF,Min DewpointF,Max Humidity, Mean Humidity, Min Humidity, Max Sea Level PressureIn, Mean Sea Level PressureIn, Min Sea Level PressureIn, Max VisibilityMiles, Mean VisibilityMiles, Min VisibilityMiles, Max Wind SpeedMPH, Mean Wind SpeedMPH, Max Gust SpeedMPH,PrecipitationIn, CloudCover, Events, WindDirDegrees
2013-11-1,74,62,50,31,29,26,39,29,19,30.20,30.11,30.06,10,10,10,13,5,14,0.00,0,,209
2013-11-2,75,63,50,30,28,25,44,31,17,30.05,29.91,29.75,10,10,10,14,6,16,0.00,2,,189
2013-11-3,75,65,54,27,24,21,35,24,13,29.78,29.72,29.69,10,10,10,20,6,24,0.00,1,,200
2013-11-4,64,57,50,30,23,17,39,28,17,29.98,29.82,29.72,10,10,10,16,7,20,0.00,4,,75
2013-11-5,62,55,47,27,13,9,42,27,12,30.26,30.16,30.01,10,10,10,18,8,24,0.00,0,,5
2013-11-6,67,55,42,19,15,13,33,23,12,30.35,30.29,30.24,10,10,10,13,6,15,0.00,1,,206
2013-11-7,71,59,47,21,19,16,34,23,12,30.26,30.15,30.04,10,10,10,12,6,13,0.00,5,,201
2013-11-8,72,60,48,21,19,17,34,24,13,30.07,30.00,29.92,10,10,10,13,5,14,0.00,1,,203
2013-11-9,73,61,48,22,19,16,31,22,13,30.09,30.04,29.98,10,10,10,12,6,13,0.00,0,,200
2013-11-10,75,62,49,26,22,18,32,23,14,30.16,30.10,30.05,10,10,10,12,7,13,0.00,1,,194
2013-11-11,78,64,49,25,23,18,36,24,11,30.17,30.12,30.07,10,10,10,14,6,15,0.00,0,,205
2013-11-12,78,67,55,22,19,17,24,17,10,30.25,30.17,30.12,10,10,10,14,7,16,0.00,7,,202
2013-11-13,79,68,56,22,20,18,24,17,10,30.12,30.04,29.97,10,10,10,10,6,13,0.00,2,,197
2013-11-14,74,64,53,28,23,19,26,21,15,30.04,29.87,29.59,10,10,10,16,7,22,0.00,4,,194
2013-11-15,75,65,55,25,23,19,28,21,13,29.57,29.54,29.49,10,10,10,22,6,28,0.00,1,,216
2013-11-16,67,58,48,35,30,22,40,33,26,29.79,29.64,29.57,10,10,10,26,13,35,0.00,2,,194
2013-11-17,66,57,48,37,35,33,56,45,34,30.06,29.97,29.81,10,10,10,14,5,17,0.00,0,,206
2013-11-18,67,58,48,38,36,35,61,48,34,30.12,30.02,29.93,10,10,10,10,6,12,0.00,4,,187
2013-11-19,67,60,53,39,38,35,59,47,34,29.91,29.87,29.83,10,10,10,10,5,12,0.00,7,,203
2013-11-20,66,59,51,40,38,35,59,48,37,29.84,29.78,29.73,10,10,10,12,5,12,0.00,6,,192
2013-11-21,62,54,46,52,45,38,93,71,48,29.98,29.83,29.72,10,9,2,14,8,21,0.90,7,Fog-Rain,249
2013-11-22,49,47,45,41,38,37,82,77,71,30.01,29.98,29.92,10,10,5,18,8,23,0.29,8,Rain,329
2013-11-23,48,47,45,42,40,37,82,77,71,30.11,30.04,29.97,10,10,8,18,6,24,0.18,8,Rain,310
2013-11-24,56,51,46,41,39,37,82,67,51,30.17,30.13,30.09,10,10,10,12,6,13,T,4,,193
2013-11-25,62,52,42,41,37,33,82,58,34,30.25,30.21,30.16,10,10,10,12,6,13,0.00,0,,204
2013-11-26,65,54,43,37,33,27,71,48,24,30.31,30.23,30.16,10,10,10,13,6,14,0.00,3,,197
2013-11-27,63,55,47,38,34,30,65,48,30,30.14,30.06,29.98,10,10,10,10,5,13,0.00,6,,201
2013-11-28,62,54,45,37,35,32,71,52,32,30.11,30.04,29.99,10,10,10,12,5,13,0.00,3,,209
2013-11-29,63,53,42,38,35,32,76,54,32,30.22,30.16,30.10,10,10,10,12,6,23,0.00,4,,200
2013-11-30,63,53,43,38,34,31,70,51,32,30.24,30.19,30.12,10,10,10,13,6,16,0.00,1,,200